Time;durP1;ratioP1;P1;durP2;ratioP2;P2;SDS_P1;SDS_P2;PMS_P1;PMS_P2;Temp;Humidity;BMP_temperature;BMP_pressure;BME280_temperature;BME280_humidity;BME280_pressure;Samples;Min_cycle;Max_cycle;Signal;HPM_P1;HPM_P2
2023/11/20 00:00:37;;;;;;;;;;;12.90;99.90;;;;;;4924740;29;19918;-87
2023/11/20 00:05:38;;;;;;;;;;;12.90;99.90;;;;;;4941445;23;19939;-88
2023/11/20 00:08:04;;;;;;;;;;;12.80;99.90;;;;;;4933613;29;19918;-89
2023/11/20 00:10:31;;;;;;;;;;;12.90;99.90;;;;;;4917658;29;19903;-87
2023/11/20 00:12:57;;;;;;;;;;;12.80;99.90;;;;;;4914826;29;19975;-89
2023/11/20 00:15:22;;;;;;;;;;;12.80;99.90;;;;;;4908313;29;19931;-89
2023/11/20 00:17:48;;;;;;;;;;;12.80;99.90;;;;;;4908281;29;19911;-89
2023/11/20 00:20:13;;;;;;;;;;;12.80;99.90;;;;;;4907271;29;19919;-89
2023/11/20 00:22:39;;;;;;;;;;;12.80;99.90;;;;;;4908415;29;20061;-88
2023/11/20 00:25:04;;;;;;;;;;;12.80;99.90;;;;;;4905230;29;19915;-88
2023/11/20 00:27:30;;;;;;;;;;;12.80;99.90;;;;;;4907990;29;19915;-89
2023/11/20 00:29:55;;;;;;;;;;;12.80;99.90;;;;;;4907233;29;19940;-88
2023/11/20 00:32:21;;;;;;;;;;;12.80;99.90;;;;;;4903319;29;19911;-89
2023/11/20 00:34:46;;;;;;;;;;;12.80;99.90;;;;;;4905853;29;19967;-87
2023/11/20 00:37:12;;;;;;;;;;;12.70;99.90;;;;;;4896459;29;19908;-86
2023/11/20 00:39:37;;;;;;;;;;;12.70;99.90;;;;;;4906239;29;19935;-87
2023/11/20 00:42:04;;;;;;;;;;;12.80;99.90;;;;;;4905917;29;19916;-86
2023/11/20 00:44:29;;;;;;;;;;;12.80;99.90;;;;;;4908433;29;19918;-89
2023/11/20 00:46:55;;;;;;;;;;;12.80;99.90;;;;;;4906189;29;19911;-89
2023/11/20 00:49:20;;;;;;;;;;;12.70;99.90;;;;;;4921542;29;19922;-89
2023/11/20 00:51:46;;;;;;;;;;;12.70;99.90;;;;;;4903319;29;19934;-90
2023/11/20 00:54:11;;;;;;;;;;;12.80;99.90;;;;;;4901524;29;19919;-88
2023/11/20 00:56:37;;;;;;;;;;;12.70;99.90;;;;;;4905783;29;19907;-90
2023/11/20 00:59:03;;;;;;;;;;;12.70;99.90;;;;;;4906642;29;19915;-90
2023/11/20 01:01:28;;;;;;;;;;;12.70;99.90;;;;;;4910727;29;19915;-90
2023/11/20 01:03:55;;;;;;;;;;;12.70;99.90;;;;;;4908210;29;19947;-88
2023/11/20 01:06:20;;;;;;;;;;;12.70;99.90;;;;;;4899858;29;19962;-89
2023/11/20 01:08:46;;;;;;;;;;;12.70;99.90;;;;;;4896650;29;19912;-89
2023/11/20 01:11:12;;;;;;;;;;;12.70;99.90;;;;;;4898960;29;19911;-90
2023/11/20 01:13:38;;;;;;;;;;;12.70;99.90;;;;;;4900805;29;20013;-90
2023/11/20 01:16:06;;;;;;;;;;;12.70;99.90;;;;;;4912496;29;19903;-90
2023/11/20 01:18:32;;;;;;;;;;;12.60;99.90;;;;;;4914355;29;19970;-90
2023/11/20 01:20:58;;;;;;;;;;;12.70;99.90;;;;;;4899004;29;19907;-89
2023/11/20 01:23:23;;;;;;;;;;;12.60;99.90;;;;;;4904116;29;20366;-86
2023/11/20 01:25:49;;;;;;;;;;;12.60;99.90;;;;;;4905267;29;19911;-86
2023/11/20 01:28:14;;;;;;;;;;;12.60;99.90;;;;;;4920891;29;19918;-88
2023/11/20 01:30:39;;;;;;;;;;;12.50;99.90;;;;;;4908733;29;19923;-86
2023/11/20 01:33:05;;;;;;;;;;;12.60;99.90;;;;;;4903599;29;19918;-88
2023/11/20 01:35:31;;;;;;;;;;;12.60;99.90;;;;;;4901668;29;19911;-90
2023/11/20 01:37:56;;;;;;;;;;;12.50;99.90;;;;;;4904447;29;20374;-88
2023/11/20 01:40:22;;;;;;;;;;;12.50;99.90;;;;;;4911937;29;19927;-89
2023/11/20 01:42:48;;;;;;;;;;;12.50;99.90;;;;;;4911631;29;19912;-90
2023/11/20 01:45:17;;;;;;;;;;;12.50;99.90;;;;;;4920526;29;19922;-91
2023/11/20 01:47:43;;;;;;;;;;;12.50;99.90;;;;;;4915389;29;19927;-90
2023/11/20 01:50:09;;;;;;;;;;;12.60;99.90;;;;;;4912218;29;19912;-90
2023/11/20 01:52:39;;;;;;;;;;;12.60;99.90;;;;;;4920042;29;19907;-89
2023/11/20 01:55:05;;;;;;;;;;;12.50;99.90;;;;;;4924274;29;19918;-89
2023/11/20 01:57:30;;;;;;;;;;;12.50;99.90;;;;;;4917512;29;19946;-89
2023/11/20 01:59:56;;;;;;;;;;;12.50;99.90;;;;;;4906140;29;20293;-89
2023/11/20 02:02:22;;;;;;;;;;;12.50;99.90;;;;;;4902639;29;19911;-89
2023/11/20 02:04:50;;;;;;;;;;;12.50;99.90;;;;;;4913139;29;20393;-90
2023/11/20 02:07:16;;;;;;;;;;;12.50;99.90;;;;;;4904767;29;19915;-91
2023/11/20 02:09:42;;;;;;;;;;;12.50;99.90;;;;;;4912694;29;19944;-90
2023/11/20 02:12:08;;;;;;;;;;;12.50;99.90;;;;;;4919242;29;19907;-90
2023/11/20 02:14:34;;;;;;;;;;;12.50;99.90;;;;;;4905592;29;19918;-90
2023/11/20 02:16:59;;;;;;;;;;;12.40;99.90;;;;;;4908986;29;19911;-89
2023/11/20 02:19:25;;;;;;;;;;;12.40;99.90;;;;;;4907356;29;20386;-88
2023/11/20 02:21:51;;;;;;;;;;;12.40;99.90;;;;;;4909920;29;19997;-89
2023/11/20 02:24:16;;;;;;;;;;;12.40;99.90;;;;;;4926174;29;19912;-89
2023/11/20 02:26:57;;;;;;;;;;;12.40;99.90;;;;;;4909880;29;20061;-88
2023/11/20 02:29:28;;;;;;;;;;;12.40;99.90;;;;;;4919648;29;19947;-88
2023/11/20 02:31:54;;;;;;;;;;;12.40;99.90;;;;;;4920650;29;19911;-89
2023/11/20 02:34:19;;;;;;;;;;;12.30;99.90;;;;;;4928707;29;19912;-89
2023/11/20 02:36:45;;;;;;;;;;;12.40;99.90;;;;;;4910596;29;19915;-91
2023/11/20 02:39:10;;;;;;;;;;;12.30;99.90;;;;;;4926698;29;19907;-90
2023/11/20 02:41:39;;;;;;;;;;;12.30;99.90;;;;;;4910642;29;19927;-90
2023/11/20 02:44:05;;;;;;;;;;;12.40;99.90;;;;;;4917152;29;19912;-91
2023/11/20 02:46:30;;;;;;;;;;;12.40;99.90;;;;;;4926840;29;19926;-90
2023/11/20 02:48:56;;;;;;;;;;;12.30;99.90;;;;;;4911693;29;20445;-89
2023/11/20 02:51:22;;;;;;;;;;;12.30;99.90;;;;;;4916327;29;19914;-89
2023/11/20 02:53:47;;;;;;;;;;;12.30;99.90;;;;;;4935606;29;19935;-89
2023/11/20 02:56:13;;;;;;;;;;;12.30;99.90;;;;;;4919192;29;19915;-88
2023/11/20 02:58:38;;;;;;;;;;;12.30;99.90;;;;;;4922458;29;20180;-86
2023/11/20 03:01:06;;;;;;;;;;;12.30;99.90;;;;;;4921967;29;19899;-89
2023/11/20 03:03:32;;;;;;;;;;;12.30;99.90;;;;;;4914167;28;20394;-89
2023/11/20 03:05:57;;;;;;;;;;;12.30;99.90;;;;;;4906750;29;19971;-88
2023/11/20 03:08:23;;;;;;;;;;;12.30;99.90;;;;;;4914643;29;20006;-88
2023/11/20 03:10:48;;;;;;;;;;;12.30;99.90;;;;;;4915880;29;19940;-88
2023/11/20 03:13:14;;;;;;;;;;;12.20;99.90;;;;;;4908185;29;19911;-89
2023/11/20 03:15:40;;;;;;;;;;;12.20;99.90;;;;;;4912544;29;20019;-89
2023/11/20 03:18:06;;;;;;;;;;;12.20;99.90;;;;;;4909394;29;19947;-89
2023/11/20 03:20:31;;;;;;;;;;;12.20;99.90;;;;;;4907829;29;19919;-89
2023/11/20 03:22:57;;;;;;;;;;;12.20;99.90;;;;;;4905135;29;19925;-89
2023/11/20 03:25:22;;;;;;;;;;;12.20;99.90;;;;;;4901812;29;19987;-88
2023/11/20 03:27:48;;;;;;;;;;;12.20;99.90;;;;;;4910706;29;19924;-89
2023/11/20 03:30:13;;;;;;;;;;;12.20;99.90;;;;;;4907517;29;19912;-88
2023/11/20 03:32:39;;;;;;;;;;;12.20;99.90;;;;;;4908626;29;19919;-89
2023/11/20 03:35:07;;;;;;;;;;;12.20;99.90;;;;;;4907285;29;19915;-89
2023/11/20 03:37:34;;;;;;;;;;;12.20;99.90;;;;;;4908543;29;19911;-90
2023/11/20 03:39:59;;;;;;;;;;;12.20;99.90;;;;;;4906134;29;19912;-88
2023/11/20 03:42:25;;;;;;;;;;;12.20;99.90;;;;;;4908331;29;19994;-88
2023/11/20 03:44:52;;;;;;;;;;;12.30;99.90;;;;;;4924039;29;19934;-88
2023/11/20 03:47:18;;;;;;;;;;;12.30;99.90;;;;;;4908750;29;19915;-90
2023/11/20 03:49:43;;;;;;;;;;;12.30;99.90;;;;;;4908511;29;19918;-89
2023/11/20 03:52:09;;;;;;;;;;;12.30;99.90;;;;;;4913821;29;20355;-85
2023/11/20 03:54:34;;;;;;;;;;;12.40;99.90;;;;;;4909696;29;19935;-85
2023/11/20 03:57:00;;;;;;;;;;;12.30;99.90;;;;;;4911947;29;19912;-84
2023/11/20 03:59:25;;;;;;;;;;;12.40;99.90;;;;;;4916730;29;19937;-84
2023/11/20 04:01:50;;;;;;;;;;;12.30;99.90;;;;;;4920013;29;19908;-85
2023/11/20 04:04:16;;;;;;;;;;;12.30;99.90;;;;;;4908446;29;19916;-86
2023/11/20 04:06:41;;;;;;;;;;;12.30;99.90;;;;;;4916875;29;20000;-85
2023/11/20 04:09:07;;;;;;;;;;;12.30;99.90;;;;;;4913753;29;19911;-91
2023/11/20 04:11:33;;;;;;;;;;;12.30;99.90;;;;;;4914862;29;19960;-91
2023/11/20 04:13:58;;;;;;;;;;;12.20;99.90;;;;;;4920052;29;19907;-92
2023/11/20 04:16:24;;;;;;;;;;;12.20;99.90;;;;;;4911373;29;20366;-91
2023/11/20 04:18:53;;;;;;;;;;;12.20;99.90;;;;;;4913859;29;20298;-92
2023/11/20 04:21:18;;;;;;;;;;;12.20;99.90;;;;;;4907937;29;20323;-89
2023/11/20 04:23:44;;;;;;;;;;;12.20;99.90;;;;;;4905132;29;19959;-89
2023/11/20 04:26:09;;;;;;;;;;;12.20;99.90;;;;;;4910327;29;19942;-86
2023/11/20 04:28:35;;;;;;;;;;;12.20;99.90;;;;;;4907836;29;19952;-86
2023/11/20 04:31:01;;;;;;;;;;;12.20;99.90;;;;;;4900380;29;19920;-87
2023/11/20 04:33:26;;;;;;;;;;;12.20;99.90;;;;;;4905475;29;19908;-85
2023/11/20 04:35:52;;;;;;;;;;;12.20;99.90;;;;;;4906361;29;19913;-86
2023/11/20 04:38:17;;;;;;;;;;;12.20;99.90;;;;;;4906691;29;20017;-85
2023/11/20 04:40:43;;;;;;;;;;;12.20;99.90;;;;;;4907576;29;19911;-86
2023/11/20 04:43:09;;;;;;;;;;;12.20;99.90;;;;;;4909842;29;19921;-90
2023/11/20 04:48:37;;;;;;;;;;;12.20;99.90;;;;;;4903189;29;19919;-87
2023/11/20 04:51:03;;;;;;;;;;;12.20;99.90;;;;;;4903890;29;19934;-88
2023/11/20 04:53:29;;;;;;;;;;;12.20;99.90;;;;;;4931691;29;19998;-87
2023/11/20 04:55:54;;;;;;;;;;;12.20;99.90;;;;;;4896524;29;19983;-86
2023/11/20 04:58:25;;;;;;;;;;;12.20;99.90;;;;;;4900679;29;19939;-92
2023/11/20 05:01:10;;;;;;;;;;;12.20;99.90;;;;;;4901952;29;19916;-92
2023/11/20 05:03:40;;;;;;;;;;;12.20;99.90;;;;;;4905417;29;19925;-92
2023/11/20 05:06:09;;;;;;;;;;;12.20;99.90;;;;;;4926983;29;19919;-92
2023/11/20 05:08:38;;;;;;;;;;;12.20;99.90;;;;;;4912627;29;19920;-93
2023/11/20 05:11:04;;;;;;;;;;;12.20;99.90;;;;;;4907698;29;19912;-91
2023/11/20 05:13:30;;;;;;;;;;;12.10;99.90;;;;;;4906475;29;19903;-90
2023/11/20 05:15:58;;;;;;;;;;;12.10;99.90;;;;;;4911935;29;19923;-91
2023/11/20 05:18:26;;;;;;;;;;;12.20;99.90;;;;;;4901078;29;19911;-92
2023/11/20 05:20:52;;;;;;;;;;;12.10;99.90;;;;;;4909234;29;19958;-92
2023/11/20 05:23:17;;;;;;;;;;;12.20;99.90;;;;;;4906149;29;19950;-92
2023/11/20 05:25:43;;;;;;;;;;;12.20;99.90;;;;;;4916237;29;19958;-92
2023/11/20 05:28:09;;;;;;;;;;;12.20;99.90;;;;;;4903629;29;20307;-92
2023/11/20 05:30:35;;;;;;;;;;;12.20;99.90;;;;;;4900242;29;20343;-90
2023/11/20 05:33:00;;;;;;;;;;;12.20;99.90;;;;;;4913118;29;19911;-89
2023/11/20 05:35:26;;;;;;;;;;;12.20;99.90;;;;;;4910924;29;19912;-88
2023/11/20 05:37:54;;;;;;;;;;;12.20;99.90;;;;;;4915860;29;19907;-92
2023/11/20 05:40:20;;;;;;;;;;;12.20;99.90;;;;;;4907386;29;19971;-87
2023/11/20 05:42:45;;;;;;;;;;;12.20;99.90;;;;;;4909628;29;19919;-86
2023/11/20 05:45:11;;;;;;;;;;;12.20;99.90;;;;;;4912250;29;19942;-88
2023/11/20 05:47:36;;;;;;;;;;;12.20;99.90;;;;;;4906317;29;19911;-87
2023/11/20 05:50:02;;;;;;;;;;;12.20;99.90;;;;;;4930361;29;19979;-89
2023/11/20 05:52:29;;;;;;;;;;;12.10;99.90;;;;;;4916848;29;19915;-87
2023/11/20 05:54:57;;;;;;;;;;;12.10;99.90;;;;;;4922469;29;19918;-86
2023/11/20 05:57:23;;;;;;;;;;;12.10;99.90;;;;;;4922987;29;19919;-89
2023/11/20 05:59:48;;;;;;;;;;;12.10;99.90;;;;;;4920181;29;19967;-89
2023/11/20 06:02:17;;;;;;;;;;;12.10;99.90;;;;;;4909387;29;19918;-86
2023/11/20 06:04:42;;;;;;;;;;;12.10;99.90;;;;;;4906506;29;20302;-90
2023/11/20 06:07:08;;;;;;;;;;;12.10;99.90;;;;;;4900178;29;19922;-89
2023/11/20 06:09:48;;;;;;;;;;;12.10;99.90;;;;;;4920343;29;19962;-86
2023/11/20 06:12:15;;;;;;;;;;;12.00;99.90;;;;;;4953066;23;20236;-85
2023/11/20 06:14:41;;;;;;;;;;;12.00;99.90;;;;;;4904803;29;19916;-86
2023/11/20 06:17:07;;;;;;;;;;;12.00;99.90;;;;;;4897271;29;19918;-85
2023/11/20 06:19:32;;;;;;;;;;;12.00;99.90;;;;;;4899347;29;20354;-86
2023/11/20 06:21:59;;;;;;;;;;;12.00;99.90;;;;;;4902196;29;19975;-85
2023/11/20 06:24:24;;;;;;;;;;;12.10;99.90;;;;;;4896585;29;19915;-85
2023/11/20 06:26:50;;;;;;;;;;;12.00;99.90;;;;;;4899526;29;19924;-84
2023/11/20 06:29:16;;;;;;;;;;;12.00;99.90;;;;;;4888372;29;19912;-84
2023/11/20 06:31:41;;;;;;;;;;;12.00;99.90;;;;;;4915497;28;19915;-84
2023/11/20 06:34:07;;;;;;;;;;;12.00;99.90;;;;;;4897341;29;19916;-84
2023/11/20 06:36:32;;;;;;;;;;;12.00;99.90;;;;;;4896408;29;19912;-85
2023/11/20 06:38:59;;;;;;;;;;;11.90;99.90;;;;;;4896453;29;19991;-85
2023/11/20 06:41:26;;;;;;;;;;;11.90;99.90;;;;;;4928882;29;19935;-86
2023/11/20 06:43:52;;;;;;;;;;;11.90;99.90;;;;;;4895160;29;19915;-85
2023/11/20 06:46:18;;;;;;;;;;;11.90;99.90;;;;;;4895693;29;19915;-86
2023/11/20 06:48:44;;;;;;;;;;;11.90;99.90;;;;;;4892712;29;19911;-85
2023/11/20 06:51:10;;;;;;;;;;;11.90;99.90;;;;;;4894554;29;19912;-85
2023/11/20 06:53:36;;;;;;;;;;;12.00;99.90;;;;;;4894001;29;20364;-86
2023/11/20 06:56:03;;;;;;;;;;;12.00;99.90;;;;;;4899922;29;19923;-86
2023/11/20 06:58:28;;;;;;;;;;;11.90;99.90;;;;;;4901992;29;19912;-87
2023/11/20 07:00:54;;;;;;;;;;;11.90;99.90;;;;;;4899282;29;19916;-86
2023/11/20 07:03:20;;;;;;;;;;;11.90;99.90;;;;;;4900574;29;19938;-86
2023/11/20 07:05:46;;;;;;;;;;;11.90;99.90;;;;;;4897732;29;20506;-87
2023/11/20 07:08:14;;;;;;;;;;;11.90;99.90;;;;;;4899732;29;19982;-85
2023/11/20 07:10:40;;;;;;;;;;;11.90;99.90;;;;;;4900122;29;19967;-87
2023/11/20 07:13:06;;;;;;;;;;;11.90;99.90;;;;;;4900313;29;20421;-86
2023/11/20 07:15:32;;;;;;;;;;;11.90;99.90;;;;;;4910754;29;19911;-87
2023/11/20 07:17:58;;;;;;;;;;;11.90;99.90;;;;;;4902308;29;19926;-87
2023/11/20 07:20:24;;;;;;;;;;;11.80;99.90;;;;;;4906331;29;19911;-86
2023/11/20 07:22:49;;;;;;;;;;;11.80;99.90;;;;;;4912133;29;19929;-85
2023/11/20 07:25:15;;;;;;;;;;;11.80;99.90;;;;;;4903227;29;19982;-85
2023/11/20 07:27:40;;;;;;;;;;;11.80;99.90;;;;;;4898110;29;19920;-86
2023/11/20 07:30:07;;;;;;;;;;;11.70;99.90;;;;;;4892870;29;19946;-83
2023/11/20 07:32:33;;;;;;;;;;;11.70;99.90;;;;;;4890247;29;19931;-85
2023/11/20 07:34:58;;;;;;;;;;;11.70;99.90;;;;;;4897916;29;19912;-84
2023/11/20 07:37:24;;;;;;;;;;;11.70;99.90;;;;;;4895999;29;19975;-82
2023/11/20 07:39:49;;;;;;;;;;;11.70;99.90;;;;;;4929783;29;19919;-84
2023/11/20 07:42:15;;;;;;;;;;;11.70;99.90;;;;;;4900083;29;19919;-85
2023/11/20 07:44:41;;;;;;;;;;;11.70;99.90;;;;;;4899797;29;20021;-84
2023/11/20 07:47:06;;;;;;;;;;;11.70;99.90;;;;;;4890513;29;19911;-83
2023/11/20 07:49:32;;;;;;;;;;;11.70;99.90;;;;;;4899592;29;19911;-83
2023/11/20 07:51:58;;;;;;;;;;;11.70;99.90;;;;;;4897507;29;20359;-83
2023/11/20 07:54:24;;;;;;;;;;;11.70;99.90;;;;;;4894624;29;20013;-85
2023/11/20 07:56:51;;;;;;;;;;;11.70;99.90;;;;;;4910559;29;19912;-86
2023/11/20 07:59:16;;;;;;;;;;;11.70;99.90;;;;;;4892755;29;20299;-85
2023/11/20 08:01:42;;;;;;;;;;;11.80;99.90;;;;;;4889755;29;20382;-84
2023/11/20 08:04:10;;;;;;;;;;;11.80;99.90;;;;;;4887700;29;19961;-84
2023/11/20 08:06:36;;;;;;;;;;;11.80;99.90;;;;;;4890716;29;19934;-83
2023/11/20 08:09:02;;;;;;;;;;;11.90;99.90;;;;;;4890548;29;19911;-82
2023/11/20 08:11:27;;;;;;;;;;;11.90;99.90;;;;;;4893761;29;20371;-88
2023/11/20 08:13:53;;;;;;;;;;;12.00;99.90;;;;;;4899284;29;19922;-85
2023/11/20 08:16:18;;;;;;;;;;;11.90;99.90;;;;;;4892860;29;20446;-84
2023/11/20 08:18:44;;;;;;;;;;;11.90;99.90;;;;;;4898844;29;19970;-84
2023/11/20 08:21:09;;;;;;;;;;;11.80;99.90;;;;;;4887394;29;19953;-84
2023/11/20 08:23:35;;;;;;;;;;;11.80;99.90;;;;;;4889721;29;20366;-84
2023/11/20 08:26:00;;;;;;;;;;;11.80;99.90;;;;;;4892825;29;20544;-83
2023/11/20 08:28:26;;;;;;;;;;;11.80;99.90;;;;;;4890972;29;19912;-83
2023/11/20 08:30:52;;;;;;;;;;;11.80;99.90;;;;;;4900257;29;19934;-84
2023/11/20 08:33:17;;;;;;;;;;;11.80;99.90;;;;;;4890744;29;19997;-83
2023/11/20 08:35:43;;;;;;;;;;;11.70;99.90;;;;;;4890449;29;20002;-82
2023/11/20 08:38:09;;;;;;;;;;;11.70;99.90;;;;;;4892181;29;19919;-83
2023/11/20 08:40:34;;;;;;;;;;;11.80;99.90;;;;;;4923197;29;19915;-83
2023/11/20 08:43:00;;;;;;;;;;;11.70;99.90;;;;;;4891705;29;19926;-84
2023/11/20 08:45:26;;;;;;;;;;;11.70;99.90;;;;;;4893467;29;20398;-84
2023/11/20 08:47:52;;;;;;;;;;;11.70;99.90;;;;;;4893885;29;19911;-83
2023/11/20 08:50:17;;;;;;;;;;;11.80;99.90;;;;;;4892409;29;19962;-84
2023/11/20 08:52:43;;;;;;;;;;;11.80;99.90;;;;;;4890723;29;19911;-84
2023/11/20 08:55:08;;;;;;;;;;;11.80;99.90;;;;;;4899373;29;20309;-83
2023/11/20 08:57:35;;;;;;;;;;;11.80;99.90;;;;;;4893946;29;19970;-83
2023/11/20 09:00:01;;;;;;;;;;;11.80;99.90;;;;;;4894892;29;20439;-82
2023/11/20 09:02:26;;;;;;;;;;;11.80;99.90;;;;;;4897105;29;19919;-84
2023/11/20 09:04:52;;;;;;;;;;;11.90;99.90;;;;;;4897769;29;19912;-82
2023/11/20 09:07:17;;;;;;;;;;;11.90;99.90;;;;;;4909098;29;20366;-89
2023/11/20 09:09:43;;;;;;;;;;;11.90;99.90;;;;;;4900251;29;19946;-85
2023/11/20 09:12:08;;;;;;;;;;;11.90;99.90;;;;;;4887966;29;19954;-85
2023/11/20 09:14:34;;;;;;;;;;;11.90;99.90;;;;;;4891859;29;19916;-84
2023/11/20 09:17:00;;;;;;;;;;;11.90;99.90;;;;;;4892600;29;19918;-86
2023/11/20 09:19:26;;;;;;;;;;;11.90;99.90;;;;;;4898384;29;19918;-83
2023/11/20 09:21:51;;;;;;;;;;;11.90;99.90;;;;;;4893419;29;19923;-85
2023/11/20 09:24:17;;;;;;;;;;;11.90;99.90;;;;;;4901988;29;19920;-90
2023/11/20 09:26:44;;;;;;;;;;;11.90;99.90;;;;;;4937821;29;19930;-86
2023/11/20 09:29:10;;;;;;;;;;;12.00;99.90;;;;;;4925147;29;19911;-87
2023/11/20 09:31:35;;;;;;;;;;;12.00;99.90;;;;;;4902377;29;19967;-89
2023/11/20 09:41:42;;;;;;;;;;;12.00;99.90;;;;;;4903886;29;19927;-83
2023/11/20 09:44:09;;;;;;;;;;;12.00;99.90;;;;;;4907196;29;19998;-81
2023/11/20 09:46:36;;;;;;;;;;;12.00;99.90;;;;;;4922742;29;19957;-82
2023/11/20 09:49:04;;;;;;;;;;;11.90;99.90;;;;;;4908073;29;19970;-83
2023/11/20 09:51:33;;;;;;;;;;;12.00;99.90;;;;;;4905595;29;19919;-83
2023/11/20 09:53:59;;;;;;;;;;;12.00;99.90;;;;;;4888591;29;20627;-81
2023/11/20 09:56:24;;;;;;;;;;;12.00;99.90;;;;;;4891877;29;19922;-81
2023/11/20 09:58:50;;;;;;;;;;;12.10;99.90;;;;;;4891101;29;19911;-81
2023/11/20 10:01:17;;;;;;;;;;;12.10;99.90;;;;;;4887550;29;19918;-82
2023/11/20 10:03:43;;;;;;;;;;;12.10;99.90;;;;;;4886207;29;19927;-82
2023/11/20 10:06:09;;;;;;;;;;;12.20;99.90;;;;;;4889330;29;20228;-85
2023/11/20 10:08:36;;;;;;;;;;;12.20;99.90;;;;;;4892965;29;19919;-82
2023/11/20 10:11:02;;;;;;;;;;;12.20;99.90;;;;;;4890372;29;20753;-84
2023/11/20 10:13:29;;;;;;;;;;;12.20;99.90;;;;;;4895412;29;19919;-86
2023/11/20 10:15:54;;;;;;;;;;;12.30;99.90;;;;;;4914823;29;20038;-84
2023/11/20 10:18:20;;;;;;;;;;;12.30;99.90;;;;;;4900046;29;20446;-83
2023/11/20 10:20:47;;;;;;;;;;;12.30;99.90;;;;;;4896664;29;19911;-83
2023/11/20 10:23:13;;;;;;;;;;;12.30;99.90;;;;;;4893144;29;19962;-85
2023/11/20 10:25:43;;;;;;;;;;;12.40;99.90;;;;;;4912265;29;19967;-81
2023/11/20 10:28:09;;;;;;;;;;;12.40;99.90;;;;;;4893141;29;19939;-82
2023/11/20 10:30:35;;;;;;;;;;;12.50;99.80;;;;;;4894175;29;20673;-83
2023/11/20 10:33:01;;;;;;;;;;;12.50;99.60;;;;;;4889358;29;19919;-85
2023/11/20 10:35:27;;;;;;;;;;;12.50;99.40;;;;;;4891780;29;19985;-81
2023/11/20 10:38:03;;;;;;;;;;;12.50;99.40;;;;;;4906777;29;19911;-83
2023/11/20 10:40:29;;;;;;;;;;;12.40;99.10;;;;;;4892641;29;19990;-81
2023/11/20 10:42:55;;;;;;;;;;;12.40;99.30;;;;;;4893843;29;19919;-81
2023/11/20 10:45:21;;;;;;;;;;;12.40;99.30;;;;;;4897303;29;19915;-87
2023/11/20 10:47:48;;;;;;;;;;;12.30;99.30;;;;;;4925317;29;19931;-86
2023/11/20 10:50:15;;;;;;;;;;;12.30;99.30;;;;;;4891912;29;20297;-84
2023/11/20 10:52:41;;;;;;;;;;;12.30;99.40;;;;;;4890657;29;19920;-85
2023/11/20 10:55:10;;;;;;;;;;;12.30;99.50;;;;;;4895801;29;19923;-84
2023/11/20 10:57:36;;;;;;;;;;;12.30;99.50;;;;;;4899928;29;19911;-85
2023/11/20 11:00:09;;;;;;;;;;;12.40;99.50;;;;;;4894524;29;19919;-83
2023/11/20 11:02:36;;;;;;;;;;;12.40;99.60;;;;;;4894016;29;20401;-82
2023/11/20 11:05:06;;;;;;;;;;;12.40;99.60;;;;;;4904253;29;19911;-82
2023/11/20 11:07:33;;;;;;;;;;;12.50;99.50;;;;;;4889628;29;19998;-82
2023/11/20 11:09:59;;;;;;;;;;;12.50;99.20;;;;;;4889813;29;20384;-82
2023/11/20 11:12:26;;;;;;;;;;;12.60;99.10;;;;;;4891580;29;20007;-82
2023/11/20 11:14:52;;;;;;;;;;;12.70;98.90;;;;;;4906864;29;19979;-82
2023/11/20 11:17:21;;;;;;;;;;;12.70;98.60;;;;;;4891632;29;19954;-82
2023/11/20 11:19:52;;;;;;;;;;;12.80;98.50;;;;;;4892291;29;20278;-84
2023/11/20 11:22:25;;;;;;;;;;;12.90;98.20;;;;;;4898900;29;20334;-84
2023/11/20 11:24:52;;;;;;;;;;;13.00;97.70;;;;;;4906070;29;19926;-84
2023/11/20 11:27:19;;;;;;;;;;;13.00;97.70;;;;;;4893679;29;19919;-83
2023/11/20 11:29:46;;;;;;;;;;;13.10;97.50;;;;;;4896188;29;20338;-80
2023/11/20 11:32:44;;;;;;;;;;;13.30;97.50;;;;;;4888720;29;20010;-81
2023/11/20 11:35:17;;;;;;;;;;;13.40;97.30;;;;;;4891924;29;19919;-82
2023/11/20 11:37:46;;;;;;;;;;;13.50;97.10;;;;;;4906819;29;20307;-81
2023/11/20 11:40:17;;;;;;;;;;;13.60;96.50;;;;;;4903020;29;20502;-83
2023/11/20 11:42:48;;;;;;;;;;;13.70;96.50;;;;;;4891903;29;19929;-83
2023/11/20 11:45:16;;;;;;;;;;;13.70;95.90;;;;;;4890479;29;19918;-84
2023/11/20 11:47:45;;;;;;;;;;;13.70;95.80;;;;;;4888141;29;20282;-83
2023/11/20 11:50:14;;;;;;;;;;;13.60;95.60;;;;;;4889984;29;20287;-82
2023/11/20 11:52:40;;;;;;;;;;;13.50;95.50;;;;;;4896737;29;19938;-84
2023/11/20 11:55:13;;;;;;;;;;;13.50;95.50;;;;;;4896809;29;20010;-83
2023/11/20 11:57:39;;;;;;;;;;;13.60;95.10;;;;;;4896812;29;19926;-82
2023/11/20 12:00:15;;;;;;;;;;;13.60;95.00;;;;;;4894580;29;20310;-83
2023/11/20 12:02:50;;;;;;;;;;;13.50;95.10;;;;;;4888868;29;19927;-82
2023/11/20 12:05:17;;;;;;;;;;;13.50;95.30;;;;;;4894314;29;19959;-83
2023/11/20 12:07:53;;;;;;;;;;;13.40;95.20;;;;;;4901696;29;20534;-81
2023/11/20 12:10:38;;;;;;;;;;;13.40;95.20;;;;;;4891191;29;19920;-82
2023/11/20 12:13:06;;;;;;;;;;;13.30;95.30;;;;;;4898672;29;19931;-83
2023/11/20 12:15:31;;;;;;;;;;;13.20;95.20;;;;;;4894651;29;20275;-84
2023/11/20 12:18:00;;;;;;;;;;;13.10;94.80;;;;;;4910588;29;20002;-83
2023/11/20 12:20:26;;;;;;;;;;;13.10;94.90;;;;;;4898586;29;20381;-83
2023/11/20 12:22:52;;;;;;;;;;;13.80;94.70;;;;;;4907569;29;20006;-82
2023/11/20 12:25:17;;;;;;;;;;;14.40;93.30;;;;;;4897301;29;19979;-84
2023/11/20 12:27:46;;;;;;;;;;;15.10;92.10;;;;;;4891844;29;20347;-83
2023/11/20 12:30:12;;;;;;;;;;;15.70;90.80;;;;;;4881981;29;20367;-83
2023/11/20 12:32:38;;;;;;;;;;;16.30;89.70;;;;;;4893342;29;20097;-81
2023/11/20 12:35:04;;;;;;;;;;;17.00;88.10;;;;;;4893196;29;20203;-82
2023/11/20 12:37:31;;;;;;;;;;;17.40;86.90;;;;;;4892211;29;19986;-81
2023/11/20 12:39:57;;;;;;;;;;;18.00;86.00;;;;;;4894131;29;19934;-83
2023/11/20 12:42:24;;;;;;;;;;;17.80;85.60;;;;;;4897607;29;19933;-84
2023/11/20 12:44:49;;;;;;;;;;;17.80;86.80;;;;;;4902172;29;19916;-81
2023/11/20 12:47:16;;;;;;;;;;;18.10;85.20;;;;;;4906761;29;19912;-82
2023/11/20 12:49:43;;;;;;;;;;;18.10;84.50;;;;;;4891702;29;19919;-82
2023/11/20 12:52:10;;;;;;;;;;;18.10;83.70;;;;;;4890432;29;20410;-83
2023/11/20 12:54:37;;;;;;;;;;;18.10;83.40;;;;;;4889425;29;19918;-84
2023/11/20 12:57:04;;;;;;;;;;;18.00;83.00;;;;;;4909693;29;19915;-85
2023/11/20 12:59:29;;;;;;;;;;;17.90;82.70;;;;;;4894624;29;19912;-85
2023/11/20 13:01:56;;;;;;;;;;;17.70;82.10;;;;;;4894578;29;19916;-85
2023/11/20 13:04:22;;;;;;;;;;;17.60;82.30;;;;;;4895532;29;19920;-84
2023/11/20 13:06:48;;;;;;;;;;;17.30;82.60;;;;;;4907728;29;19919;-82
2023/11/20 13:09:14;;;;;;;;;;;16.70;83.20;;;;;;4893097;29;19915;-85
2023/11/20 13:11:39;;;;;;;;;;;16.20;84.70;;;;;;4907150;29;19919;-83
2023/11/20 13:14:07;;;;;;;;;;;15.70;85.90;;;;;;4898530;29;20319;-82
2023/11/20 13:16:32;;;;;;;;;;;15.50;87.00;;;;;;4891922;29;19919;-86
2023/11/20 13:18:59;;;;;;;;;;;15.90;86.20;;;;;;4891392;29;19937;-83
2023/11/20 13:21:25;;;;;;;;;;;16.10;84.10;;;;;;4889385;29;19957;-85
2023/11/20 13:24:00;;;;;;;;;;;16.30;83.50;;;;;;4895327;29;20426;-85
2023/11/20 13:26:26;;;;;;;;;;;16.50;83.30;;;;;;4896307;29;19942;-85
2023/11/20 13:28:51;;;;;;;;;;;16.60;82.90;;;;;;4891983;29;19956;-85
2023/11/20 13:31:17;;;;;;;;;;;16.60;82.70;;;;;;4893191;29;19915;-85
2023/11/20 13:33:45;;;;;;;;;;;16.40;82.40;;;;;;4913020;29;19912;-85
2023/11/20 13:36:11;;;;;;;;;;;16.30;82.90;;;;;;4895705;29;19962;-84
2023/11/20 13:38:36;;;;;;;;;;;16.10;83.00;;;;;;4899946;29;19915;-85
2023/11/20 13:41:02;;;;;;;;;;;15.80;83.70;;;;;;4896341;29;19915;-84
2023/11/20 13:43:28;;;;;;;;;;;15.60;83.70;;;;;;4893155;29;19930;-83
2023/11/20 13:45:59;;;;;;;;;;;15.30;84.50;;;;;;4889699;29;20274;-84
2023/11/20 13:48:25;;;;;;;;;;;15.20;84.70;;;;;;4896088;29;20231;-85
2023/11/20 13:50:54;;;;;;;;;;;15.00;84.90;;;;;;4894204;29;20430;-84
2023/11/20 13:53:20;;;;;;;;;;;14.80;85.20;;;;;;4905932;29;19967;-85
2023/11/20 13:55:46;;;;;;;;;;;14.70;85.60;;;;;;4900549;29;19930;-84
2023/11/20 13:58:15;;;;;;;;;;;14.50;86.20;;;;;;4902052;29;19911;-85
2023/11/20 14:00:41;;;;;;;;;;;14.40;86.40;;;;;;4898316;29;19915;-85
2023/11/20 14:03:06;;;;;;;;;;;14.30;86.50;;;;;;4913218;29;20020;-85
2023/11/20 14:05:32;;;;;;;;;;;14.20;86.50;;;;;;4894825;29;20370;-85
2023/11/20 14:08:00;;;;;;;;;;;14.20;87.00;;;;;;4893346;29;19915;-85
2023/11/20 14:10:26;;;;;;;;;;;14.10;87.10;;;;;;4896904;29;19934;-85
2023/11/20 14:12:52;;;;;;;;;;;14.10;87.40;;;;;;4900196;29;20529;-85
2023/11/20 14:15:17;;;;;;;;;;;14.10;87.20;;;;;;4898644;29;19978;-85
2023/11/20 14:17:43;;;;;;;;;;;14.00;87.50;;;;;;4898947;29;20367;-85
2023/11/20 14:20:12;;;;;;;;;;;14.00;87.80;;;;;;4901367;29;20388;-85
2023/11/20 14:22:38;;;;;;;;;;;14.00;87.90;;;;;;4905709;29;19919;-85
2023/11/20 14:25:05;;;;;;;;;;;14.00;88.00;;;;;;4913458;29;19911;-86